sensor_id;sensor_type;location;lat;lon;timestamp;P1;durP1;ratioP1;P2;durP2;ratioP2
50249;SDS011;36133;42.522;27.456;2022-08-01T00:02:26;20.73;;;18.08;;
50249;SDS011;36133;42.522;27.456;2022-08-01T00:04:55;19.45;;;17.33;;
50249;SDS011;36133;42.522;27.456;2022-08-01T00:07:22;21.45;;;17.90;;
50249;SDS011;36133;42.522;27.456;2022-08-01T00:09:47;20.60;;;18.38;;
50249;SDS011;36133;42.522;27.456;2022-08-01T00:12:13;21.17;;;18.67;;
50249;SDS011;36133;42.522;27.456;2022-08-01T00:14:39;23.45;;;18.77;;
50249;SDS011;36133;42.522;27.456;2022-08-01T00:17:04;20.83;;;18.65;;
50249;SDS011;36133;42.522;27.456;2022-08-01T00:19:30;24.15;;;18.25;;
50249;SDS011;36133;42.522;27.456;2022-08-01T00:21:56;22.30;;;19.58;;
50249;SDS011;36133;42.522;27.456;2022-08-01T00:24:22;23.88;;;19.65;;
50249;SDS011;36133;42.522;27.456;2022-08-01T00:26:48;23.13;;;20.73;;
50249;SDS011;36133;42.522;27.456;2022-08-01T00:29:14;22.88;;;20.52;;
50249;SDS011;36133;42.522;27.456;2022-08-01T00:31:39;24.10;;;21.48;;
50249;SDS011;36133;42.522;27.456;2022-08-01T00:34:05;25.33;;;21.67;;
50249;SDS011;36133;42.522;27.456;2022-08-01T00:36:30;24.00;;;21.50;;
50249;SDS011;36133;42.522;27.456;2022-08-01T00:38:56;23.40;;;20.92;;
50249;SDS011;36133;42.522;27.456;2022-08-01T00:41:21;25.95;;;22.42;;
50249;SDS011;36133;42.522;27.456;2022-08-01T00:43:47;26.85;;;21.65;;
50249;SDS011;36133;42.522;27.456;2022-08-01T00:46:12;24.60;;;21.98;;
50249;SDS011;36133;42.522;27.456;2022-08-01T00:48:38;25.63;;;22.95;;
50249;SDS011;36133;42.522;27.456;2022-08-01T00:51:04;27.63;;;23.45;;
50249;SDS011;36133;42.522;27.456;2022-08-01T00:53:30;26.27;;;23.48;;
50249;SDS011;36133;42.522;27.456;2022-08-01T00:55:56;28.63;;;24.65;;
50249;SDS011;36133;42.522;27.456;2022-08-01T00:58:22;30.05;;;26.08;;
50249;SDS011;36133;42.522;27.456;2022-08-01T01:00:48;30.02;;;25.63;;
50249;SDS011;36133;42.522;27.456;2022-08-01T01:03:14;26.67;;;23.83;;
50249;SDS011;36133;42.522;27.456;2022-08-01T01:05:47;28.98;;;24.27;;
50249;SDS011;36133;42.522;27.456;2022-08-01T01:08:24;30.50;;;25.25;;
50249;SDS011;36133;42.522;27.456;2022-08-01T01:11:04;29.92;;;25.27;;
50249;SDS011;36133;42.522;27.456;2022-08-01T01:13:37;29.00;;;25.75;;
50249;SDS011;36133;42.522;27.456;2022-08-01T01:16:09;34.55;;;26.63;;
50249;SDS011;36133;42.522;27.456;2022-08-01T01:18:43;32.33;;;26.67;;
50249;SDS011;36133;42.522;27.456;2022-08-01T01:29:15;33.30;;;27.85;;
50249;SDS011;36133;42.522;27.456;2022-08-01T01:31:48;33.88;;;26.52;;
50249;SDS011;36133;42.522;27.456;2022-08-01T01:34:21;29.63;;;26.08;;
50249;SDS011;36133;42.522;27.456;2022-08-01T01:36:49;30.27;;;27.02;;
50249;SDS011;36133;42.522;27.456;2022-08-01T01:39:19;32.20;;;27.77;;
50249;SDS011;36133;42.522;27.456;2022-08-01T01:41:46;33.03;;;27.02;;
50249;SDS011;36133;42.522;27.456;2022-08-01T01:44:13;30.50;;;26.27;;
50249;SDS011;36133;42.522;27.456;2022-08-01T01:46:41;31.15;;;27.40;;
50249;SDS011;36133;42.522;27.456;2022-08-01T01:49:07;35.17;;;26.98;;
50249;SDS011;36133;42.522;27.456;2022-08-01T01:51:35;33.17;;;27.83;;
50249;SDS011;36133;42.522;27.456;2022-08-01T01:54:02;35.75;;;29.02;;
50249;SDS011;36133;42.522;27.456;2022-08-01T01:56:29;35.08;;;29.58;;
50249;SDS011;36133;42.522;27.456;2022-08-01T01:59:00;33.75;;;30.08;;
50249;SDS011;36133;42.522;27.456;2022-08-01T02:01:28;34.17;;;29.25;;
50249;SDS011;36133;42.522;27.456;2022-08-01T02:03:57;35.03;;;29.48;;
50249;SDS011;36133;42.522;27.456;2022-08-01T02:06:25;35.85;;;29.55;;
50249;SDS011;36133;42.522;27.456;2022-08-01T02:08:52;35.53;;;30.17;;
50249;SDS011;36133;42.522;27.456;2022-08-01T02:11:20;37.00;;;29.17;;
50249;SDS011;36133;42.522;27.456;2022-08-01T02:13:53;32.33;;;28.85;;
50249;SDS011;36133;42.522;27.456;2022-08-01T02:16:24;34.60;;;27.70;;
50249;SDS011;36133;42.522;27.456;2022-08-01T02:18:52;33.90;;;27.65;;
50249;SDS011;36133;42.522;27.456;2022-08-01T02:21:20;28.55;;;24.80;;
50249;SDS011;36133;42.522;27.456;2022-08-01T02:23:53;25.55;;;22.88;;
50249;SDS011;36133;42.522;27.456;2022-08-01T02:26:24;26.33;;;23.05;;
50249;SDS011;36133;42.522;27.456;2022-08-01T02:28:53;29.85;;;23.60;;
50249;SDS011;36133;42.522;27.456;2022-08-01T02:31:22;27.52;;;21.52;;
50249;SDS011;36133;42.522;27.456;2022-08-01T02:34:02;26.55;;;22.00;;
50249;SDS011;36133;42.522;27.456;2022-08-01T02:36:33;25.90;;;23.00;;
50249;SDS011;36133;42.522;27.456;2022-08-01T02:39:01;28.48;;;23.30;;
50249;SDS011;36133;42.522;27.456;2022-08-01T02:41:31;31.90;;;25.15;;
50249;SDS011;36133;42.522;27.456;2022-08-01T02:44:03;28.88;;;24.73;;
50249;SDS011;36133;42.522;27.456;2022-08-01T02:46:35;33.80;;;26.38;;
50249;SDS011;36133;42.522;27.456;2022-08-01T02:49:05;28.70;;;24.90;;
50249;SDS011;36133;42.522;27.456;2022-08-01T02:51:34;28.88;;;25.73;;
50249;SDS011;36133;42.522;27.456;2022-08-01T02:54:01;32.95;;;25.73;;
50249;SDS011;36133;42.522;27.456;2022-08-01T02:56:30;34.05;;;26.75;;
50249;SDS011;36133;42.522;27.456;2022-08-01T02:59:01;31.45;;;26.33;;
50249;SDS011;36133;42.522;27.456;2022-08-01T03:01:29;29.02;;;25.88;;
50249;SDS011;36133;42.522;27.456;2022-08-01T03:03:56;28.60;;;23.73;;
50249;SDS011;36133;42.522;27.456;2022-08-01T03:06:23;29.05;;;22.55;;
50249;SDS011;36133;42.522;27.456;2022-08-01T03:08:49;23.73;;;21.02;;
50249;SDS011;36133;42.522;27.456;2022-08-01T03:11:16;20.20;;;17.98;;
50249;SDS011;36133;42.522;27.456;2022-08-01T03:13:43;24.77;;;17.67;;
50249;SDS011;36133;42.522;27.456;2022-08-01T03:16:11;18.27;;;16.45;;
50249;SDS011;36133;42.522;27.456;2022-08-01T03:18:38;16.77;;;15.02;;
50249;SDS011;36133;42.522;27.456;2022-08-01T03:21:07;16.83;;;15.02;;
50249;SDS011;36133;42.522;27.456;2022-08-01T03:23:34;15.93;;;13.85;;
50249;SDS011;36133;42.522;27.456;2022-08-01T03:26:01;16.75;;;14.13;;
50249;SDS011;36133;42.522;27.456;2022-08-01T03:28:27;16.92;;;13.38;;
50249;SDS011;36133;42.522;27.456;2022-08-01T03:30:55;18.08;;;12.80;;
50249;SDS011;36133;42.522;27.456;2022-08-01T03:33:22;15.15;;;12.23;;
50249;SDS011;36133;42.522;27.456;2022-08-01T03:35:48;14.57;;;12.00;;
50249;SDS011;36133;42.522;27.456;2022-08-01T03:38:19;13.13;;;11.25;;
50249;SDS011;36133;42.522;27.456;2022-08-01T03:40:53;14.05;;;10.75;;
50249;SDS011;36133;42.522;27.456;2022-08-01T03:43:23;11.55;;;10.32;;
50249;SDS011;36133;42.522;27.456;2022-08-01T03:45:55;14.50;;;9.20;;
50249;SDS011;36133;42.522;27.456;2022-08-01T03:48:28;9.93;;;8.93;;
50249;SDS011;36133;42.522;27.456;2022-08-01T03:50:54;9.90;;;8.88;;
50249;SDS011;36133;42.522;27.456;2022-08-01T03:53:22;10.40;;;8.02;;
50249;SDS011;36133;42.522;27.456;2022-08-01T03:55:50;9.10;;;8.15;;
50249;SDS011;36133;42.522;27.456;2022-08-01T03:58:16;10.23;;;7.82;;
50249;SDS011;36133;42.522;27.456;2022-08-01T04:00:42;10.57;;;7.93;;
50249;SDS011;36133;42.522;27.456;2022-08-01T04:03:09;17.00;;;8.95;;
50249;SDS011;36133;42.522;27.456;2022-08-01T04:05:37;15.35;;;7.82;;
50249;SDS011;36133;42.522;27.456;2022-08-01T04:08:05;13.82;;;7.50;;
50249;SDS011;36133;42.522;27.456;2022-08-01T04:10:30;13.63;;;7.65;;
50249;SDS011;36133;42.522;27.456;2022-08-01T04:12:56;11.82;;;7.60;;
50249;SDS011;36133;42.522;27.456;2022-08-01T04:15:22;13.52;;;7.57;;
50249;SDS011;36133;42.522;27.456;2022-08-01T04:17:48;8.95;;;6.97;;
50249;SDS011;36133;42.522;27.456;2022-08-01T04:20:14;7.20;;;6.30;;
50249;SDS011;36133;42.522;27.456;2022-08-01T04:22:41;10.90;;;6.78;;
50249;SDS011;36133;42.522;27.456;2022-08-01T04:25:09;8.10;;;5.95;;
50249;SDS011;36133;42.522;27.456;2022-08-01T04:27:43;11.70;;;6.65;;
50249;SDS011;36133;42.522;27.456;2022-08-01T04:30:13;9.40;;;6.40;;
50249;SDS011;36133;42.522;27.456;2022-08-01T04:32:39;7.03;;;6.32;;
50249;SDS011;36133;42.522;27.456;2022-08-01T04:35:09;9.48;;;6.38;;
50249;SDS011;36133;42.522;27.456;2022-08-01T04:37:37;7.07;;;5.53;;
50249;SDS011;36133;42.522;27.456;2022-08-01T04:40:06;9.32;;;5.60;;
50249;SDS011;36133;42.522;27.456;2022-08-01T04:42:35;6.60;;;5.50;;
50249;SDS011;36133;42.522;27.456;2022-08-01T04:45:00;7.78;;;5.75;;
50249;SDS011;36133;42.522;27.456;2022-08-01T04:47:26;8.07;;;5.40;;
50249;SDS011;36133;42.522;27.456;2022-08-01T04:49:52;8.05;;;4.70;;
50249;SDS011;36133;42.522;27.456;2022-08-01T04:52:19;12.18;;;5.25;;
50249;SDS011;36133;42.522;27.456;2022-08-01T04:54:44;7.32;;;5.13;;
50249;SDS011;36133;42.522;27.456;2022-08-01T04:57:11;10.40;;;4.60;;
50249;SDS011;36133;42.522;27.456;2022-08-01T04:59:38;5.88;;;3.95;;
50249;SDS011;36133;42.522;27.456;2022-08-01T05:02:08;8.40;;;3.80;;
50249;SDS011;36133;42.522;27.456;2022-08-01T05:04:38;4.45;;;3.92;;
50249;SDS011;36133;42.522;27.456;2022-08-01T05:07:05;7.82;;;4.05;;
50249;SDS011;36133;42.522;27.456;2022-08-01T05:09:31;6.57;;;3.90;;
50249;SDS011;36133;42.522;27.456;2022-08-01T05:11:58;4.15;;;3.53;;
50249;SDS011;36133;42.522;27.456;2022-08-01T05:14:27;8.38;;;4.28;;
50249;SDS011;36133;42.522;27.456;2022-08-01T05:16:56;6.13;;;3.70;;
50249;SDS011;36133;42.522;27.456;2022-08-01T05:19:22;6.57;;;3.25;;
50249;SDS011;36133;42.522;27.456;2022-08-01T05:21:48;4.55;;;2.67;;
50249;SDS011;36133;42.522;27.456;2022-08-01T05:24:13;5.38;;;2.50;;
50249;SDS011;36133;42.522;27.456;2022-08-01T05:26:39;4.15;;;2.28;;
50249;SDS011;36133;42.522;27.456;2022-08-01T05:29:04;9.20;;;2.83;;
50249;SDS011;36133;42.522;27.456;2022-08-01T05:31:30;5.05;;;2.30;;
50249;SDS011;36133;42.522;27.456;2022-08-01T05:33:59;5.10;;;2.03;;
50249;SDS011;36133;42.522;27.456;2022-08-01T05:36:25;6.10;;;2.70;;
50249;SDS011;36133;42.522;27.456;2022-08-01T05:38:51;2.78;;;2.30;;
50249;SDS011;36133;42.522;27.456;2022-08-01T05:41:17;7.93;;;2.40;;
50249;SDS011;36133;42.522;27.456;2022-08-01T05:43:42;8.13;;;2.33;;
50249;SDS011;36133;42.522;27.456;2022-08-01T05:46:07;5.75;;;2.10;;
50249;SDS011;36133;42.522;27.456;2022-08-01T05:48:33;3.50;;;2.40;;
50249;SDS011;36133;42.522;27.456;2022-08-01T05:50:58;2.80;;;2.15;;
50249;SDS011;36133;42.522;27.456;2022-08-01T05:53:24;3.65;;;2.20;;
50249;SDS011;36133;42.522;27.456;2022-08-01T05:55:50;4.32;;;2.42;;
50249;SDS011;36133;42.522;27.456;2022-08-01T05:58:15;4.57;;;2.38;;
50249;SDS011;36133;42.522;27.456;2022-08-01T06:00:41;4.45;;;1.90;;
50249;SDS011;36133;42.522;27.456;2022-08-01T06:03:06;6.88;;;2.00;;
50249;SDS011;36133;42.522;27.456;2022-08-01T06:05:32;6.07;;;2.20;;
50249;SDS011;36133;42.522;27.456;2022-08-01T06:07:57;4.20;;;2.05;;
50249;SDS011;36133;42.522;27.456;2022-08-01T06:10:23;7.93;;;2.00;;
50249;SDS011;36133;42.522;27.456;2022-08-01T06:12:49;3.28;;;2.20;;
50249;SDS011;36133;42.522;27.456;2022-08-01T06:15:14;5.75;;;2.50;;
50249;SDS011;36133;42.522;27.456;2022-08-01T06:17:43;6.50;;;2.17;;
50249;SDS011;36133;42.522;27.456;2022-08-01T06:20:09;4.43;;;2.33;;
50249;SDS011;36133;42.522;27.456;2022-08-01T06:22:35;4.38;;;2.75;;
50249;SDS011;36133;42.522;27.456;2022-08-01T06:25:01;7.40;;;2.72;;
50249;SDS011;36133;42.522;27.456;2022-08-01T06:27:26;8.48;;;2.70;;
50249;SDS011;36133;42.522;27.456;2022-08-01T06:30:04;2.60;;;2.40;;
50249;SDS011;36133;42.522;27.456;2022-08-01T06:32:39;6.47;;;2.85;;
50249;SDS011;36133;42.522;27.456;2022-08-01T06:35:17;8.75;;;2.75;;
50249;SDS011;36133;42.522;27.456;2022-08-01T06:37:54;3.78;;;2.50;;
50249;SDS011;36133;42.522;27.456;2022-08-01T06:40:19;3.72;;;2.83;;
50249;SDS011;36133;42.522;27.456;2022-08-01T06:42:48;6.90;;;3.13;;
50249;SDS011;36133;42.522;27.456;2022-08-01T06:45:19;5.30;;;2.95;;
50249;SDS011;36133;42.522;27.456;2022-08-01T06:47:47;5.60;;;3.10;;
50249;SDS011;36133;42.522;27.456;2022-08-01T06:50:13;4.88;;;3.03;;
50249;SDS011;36133;42.522;27.456;2022-08-01T06:52:40;8.02;;;3.03;;
50249;SDS011;36133;42.522;27.456;2022-08-01T06:55:16;6.57;;;3.60;;
50249;SDS011;36133;42.522;27.456;2022-08-01T06:57:45;9.02;;;3.60;;
50249;SDS011;36133;42.522;27.456;2022-08-01T07:00:20;7.82;;;2.40;;
50249;SDS011;36133;42.522;27.456;2022-08-01T07:02:48;7.13;;;2.17;;
50249;SDS011;36133;42.522;27.456;2022-08-01T07:05:14;3.60;;;1.70;;
50249;SDS011;36133;42.522;27.456;2022-08-01T07:07:40;5.22;;;1.90;;
50249;SDS011;36133;42.522;27.456;2022-08-01T07:10:11;4.13;;;1.92;;
50249;SDS011;36133;42.522;27.456;2022-08-01T07:12:39;6.35;;;1.85;;
50249;SDS011;36133;42.522;27.456;2022-08-01T07:15:09;7.97;;;1.80;;
50249;SDS011;36133;42.522;27.456;2022-08-01T07:17:39;7.03;;;2.17;;
50249;SDS011;36133;42.522;27.456;2022-08-01T07:20:07;7.47;;;2.08;;
50249;SDS011;36133;42.522;27.456;2022-08-01T07:22:41;4.90;;;2.50;;
50249;SDS011;36133;42.522;27.456;2022-08-01T07:25:16;8.10;;;2.75;;
50249;SDS011;36133;42.522;27.456;2022-08-01T07:27:48;10.77;;;2.15;;
50249;SDS011;36133;42.522;27.456;2022-08-01T07:30:16;6.65;;;1.90;;
50249;SDS011;36133;42.522;27.456;2022-08-01T07:32:45;4.70;;;2.17;;
50249;SDS011;36133;42.522;27.456;2022-08-01T07:35:14;6.97;;;2.40;;
50249;SDS011;36133;42.522;27.456;2022-08-01T07:37:52;10.10;;;2.70;;
50249;SDS011;36133;42.522;27.456;2022-08-01T07:40:18;4.65;;;1.73;;
50249;SDS011;36133;42.522;27.456;2022-08-01T07:42:47;6.97;;;1.90;;
50249;SDS011;36133;42.522;27.456;2022-08-01T07:45:19;7.13;;;2.05;;
50249;SDS011;36133;42.522;27.456;2022-08-01T07:47:54;5.10;;;1.55;;
50249;SDS011;36133;42.522;27.456;2022-08-01T07:50:26;3.80;;;1.90;;
50249;SDS011;36133;42.522;27.456;2022-08-01T07:52:52;10.95;;;2.20;;
50249;SDS011;36133;42.522;27.456;2022-08-01T07:55:17;7.55;;;3.17;;
50249;SDS011;36133;42.522;27.456;2022-08-01T07:57:57;7.72;;;2.45;;
50249;SDS011;36133;42.522;27.456;2022-08-01T08:00:22;10.10;;;3.20;;
50249;SDS011;36133;42.522;27.456;2022-08-01T08:02:48;8.40;;;2.55;;
50249;SDS011;36133;42.522;27.456;2022-08-01T08:05:17;8.52;;;2.60;;
50249;SDS011;36133;42.522;27.456;2022-08-01T08:07:47;2.97;;;2.00;;
50249;SDS011;36133;42.522;27.456;2022-08-01T08:10:13;3.13;;;2.22;;
50249;SDS011;36133;42.522;27.456;2022-08-01T08:12:42;6.35;;;2.20;;
50249;SDS011;36133;42.522;27.456;2022-08-01T08:15:15;5.88;;;2.00;;
50249;SDS011;36133;42.522;27.456;2022-08-01T08:17:41;3.28;;;1.98;;
50249;SDS011;36133;42.522;27.456;2022-08-01T08:20:07;6.47;;;2.22;;
50249;SDS011;36133;42.522;27.456;2022-08-01T08:22:52;3.67;;;2.10;;
50249;SDS011;36133;42.522;27.456;2022-08-01T08:25:20;5.05;;;2.00;;
50249;SDS011;36133;42.522;27.456;2022-08-01T08:27:49;4.55;;;1.92;;
50249;SDS011;36133;42.522;27.456;2022-08-01T08:30:18;5.32;;;2.38;;
50249;SDS011;36133;42.522;27.456;2022-08-01T08:32:50;5.38;;;2.78;;
50249;SDS011;36133;42.522;27.456;2022-08-01T08:35:15;4.30;;;1.95;;
50249;SDS011;36133;42.522;27.456;2022-08-01T08:37:50;4.55;;;1.80;;
50249;SDS011;36133;42.522;27.456;2022-08-01T08:40:15;2.67;;;1.85;;
50249;SDS011;36133;42.522;27.456;2022-08-01T08:42:41;4.68;;;1.92;;
50249;SDS011;36133;42.522;27.456;2022-08-01T08:45:08;2.65;;;2.00;;
50249;SDS011;36133;42.522;27.456;2022-08-01T08:47:37;3.92;;;1.95;;
50249;SDS011;36133;42.522;27.456;2022-08-01T08:50:07;6.70;;;1.80;;
50249;SDS011;36133;42.522;27.456;2022-08-01T08:52:33;2.65;;;1.50;;
50249;SDS011;36133;42.522;27.456;2022-08-01T08:55:03;3.92;;;1.60;;
50249;SDS011;36133;42.522;27.456;2022-08-01T09:00:21;5.72;;;1.55;;
50249;SDS011;36133;42.522;27.456;2022-08-01T09:02:54;3.05;;;1.70;;
50249;SDS011;36133;42.522;27.456;2022-08-01T09:05:24;7.85;;;1.65;;
50249;SDS011;36133;42.522;27.456;2022-08-01T09:08:06;3.35;;;1.85;;
50249;SDS011;36133;42.522;27.456;2022-08-01T09:10:36;4.38;;;1.50;;
50249;SDS011;36133;42.522;27.456;2022-08-01T09:13:12;2.65;;;1.73;;
50249;SDS011;36133;42.522;27.456;2022-08-01T09:15:49;4.32;;;1.60;;
50249;SDS011;36133;42.522;27.456;2022-08-01T09:22:21;3.85;;;2.20;;
50249;SDS011;36133;42.522;27.456;2022-08-01T09:25:05;3.17;;;1.55;;
50249;SDS011;36133;42.522;27.456;2022-08-01T09:27:36;3.00;;;1.42;;
50249;SDS011;36133;42.522;27.456;2022-08-01T09:30:09;3.60;;;1.70;;
50249;SDS011;36133;42.522;27.456;2022-08-01T09:32:35;7.63;;;1.50;;
50249;SDS011;36133;42.522;27.456;2022-08-01T09:40:59;2.80;;;1.05;;
50249;SDS011;36133;42.522;27.456;2022-08-01T09:43:26;4.25;;;1.45;;
50249;SDS011;36133;42.522;27.456;2022-08-01T09:45:54;8.02;;;1.75;;
50249;SDS011;36133;42.522;27.456;2022-08-01T09:48:26;3.92;;;1.33;;
50249;SDS011;36133;42.522;27.456;2022-08-01T09:50:56;2.45;;;1.08;;
50249;SDS011;36133;42.522;27.456;2022-08-01T09:53:37;2.65;;;0.98;;
50249;SDS011;36133;42.522;27.456;2022-08-01T09:56:09;1.40;;;1.20;;
50249;SDS011;36133;42.522;27.456;2022-08-01T09:58:51;6.18;;;1.10;;
50249;SDS011;36133;42.522;27.456;2022-08-01T10:01:27;3.33;;;1.15;;
50249;SDS011;36133;42.522;27.456;2022-08-01T10:04:20;5.93;;;1.60;;
50249;SDS011;36133;42.522;27.456;2022-08-01T10:06:48;3.90;;;1.30;;
50249;SDS011;36133;42.522;27.456;2022-08-01T10:09:27;3.35;;;1.60;;
50249;SDS011;36133;42.522;27.456;2022-08-01T10:12:00;4.40;;;1.27;;
50249;SDS011;36133;42.522;27.456;2022-08-01T10:14:26;2.92;;;1.20;;
50249;SDS011;36133;42.522;27.456;2022-08-01T10:16:53;3.40;;;1.30;;
50249;SDS011;36133;42.522;27.456;2022-08-01T10:19:37;3.15;;;1.17;;
50249;SDS011;36133;42.522;27.456;2022-08-01T10:22:27;2.42;;;1.13;;
50249;SDS011;36133;42.522;27.456;2022-08-01T10:25:05;10.95;;;1.65;;
50249;SDS011;36133;42.522;27.456;2022-08-01T10:27:32;4.88;;;1.20;;
50249;SDS011;36133;42.522;27.456;2022-08-01T10:30:02;5.75;;;1.38;;
50249;SDS011;36133;42.522;27.456;2022-08-01T10:32:30;4.05;;;1.40;;
50249;SDS011;36133;42.522;27.456;2022-08-01T10:34:56;3.92;;;1.75;;
50249;SDS011;36133;42.522;27.456;2022-08-01T10:37:26;2.38;;;1.05;;
50249;SDS011;36133;42.522;27.456;2022-08-01T10:40:03;2.78;;;1.17;;
50249;SDS011;36133;42.522;27.456;2022-08-01T10:42:31;2.45;;;1.35;;
50249;SDS011;36133;42.522;27.456;2022-08-01T10:45:00;1.58;;;1.10;;
50249;SDS011;36133;42.522;27.456;2022-08-01T10:47:35;3.45;;;1.30;;
50249;SDS011;36133;42.522;27.456;2022-08-01T10:50:24;3.03;;;1.30;;
50249;SDS011;36133;42.522;27.456;2022-08-01T10:55:46;3.60;;;1.27;;
50249;SDS011;36133;42.522;27.456;2022-08-01T11:03:55;2.58;;;1.40;;
50249;SDS011;36133;42.522;27.456;2022-08-01T11:06:26;4.65;;;1.52;;
50249;SDS011;36133;42.522;27.456;2022-08-01T11:09:24;4.18;;;1.63;;
50249;SDS011;36133;42.522;27.456;2022-08-01T11:11:59;4.45;;;2.40;;
50249;SDS011;36133;42.522;27.456;2022-08-01T11:14:28;6.18;;;1.48;;
50249;SDS011;36133;42.522;27.456;2022-08-01T11:17:29;2.78;;;1.25;;
50249;SDS011;36133;42.522;27.456;2022-08-01T11:20:07;5.60;;;1.73;;
50249;SDS011;36133;42.522;27.456;2022-08-01T11:25:24;4.18;;;1.27;;
50249;SDS011;36133;42.522;27.456;2022-08-01T11:30:45;2.30;;;1.60;;
50249;SDS011;36133;42.522;27.456;2022-08-01T11:33:12;5.25;;;1.00;;
50249;SDS011;36133;42.522;27.456;2022-08-01T11:38:41;2.65;;;1.30;;
50249;SDS011;36133;42.522;27.456;2022-08-01T11:41:25;2.97;;;1.20;;
50249;SDS011;36133;42.522;27.456;2022-08-01T11:52:02;6.35;;;1.13;;
50249;SDS011;36133;42.522;27.456;2022-08-01T11:54:31;3.03;;;1.10;;
50249;SDS011;36133;42.522;27.456;2022-08-01T11:57:09;2.80;;;1.20;;
50249;SDS011;36133;42.522;27.456;2022-08-01T11:59:43;3.70;;;1.30;;
50249;SDS011;36133;42.522;27.456;2022-08-01T12:02:31;3.85;;;1.38;;
50249;SDS011;36133;42.522;27.456;2022-08-01T12:05:09;5.65;;;1.38;;
50249;SDS011;36133;42.522;27.456;2022-08-01T12:07:37;1.98;;;1.23;;
50249;SDS011;36133;42.522;27.456;2022-08-01T12:10:11;2.63;;;1.00;;
50249;SDS011;36133;42.522;27.456;2022-08-01T12:12:42;6.78;;;1.60;;
50249;SDS011;36133;42.522;27.456;2022-08-01T12:15:13;8.32;;;1.50;;
50249;SDS011;36133;42.522;27.456;2022-08-01T12:17:57;2.15;;;1.40;;
50249;SDS011;36133;42.522;27.456;2022-08-01T12:23:27;3.03;;;1.20;;
50249;SDS011;36133;42.522;27.456;2022-08-01T12:25:55;3.60;;;1.30;;
50249;SDS011;36133;42.522;27.456;2022-08-01T12:28:21;3.03;;;1.60;;
50249;SDS011;36133;42.522;27.456;2022-08-01T12:30:50;6.20;;;1.38;;
50249;SDS011;36133;42.522;27.456;2022-08-01T12:33:19;1.70;;;1.20;;
50249;SDS011;36133;42.522;27.456;2022-08-01T12:35:49;3.03;;;1.30;;
50249;SDS011;36133;42.522;27.456;2022-08-01T12:38:20;1.85;;;1.30;;
50249;SDS011;36133;42.522;27.456;2022-08-01T12:40:50;5.20;;;1.42;;
50249;SDS011;36133;42.522;27.456;2022-08-01T12:43:16;6.57;;;1.30;;
50249;SDS011;36133;42.522;27.456;2022-08-01T12:45:48;8.45;;;1.50;;
50249;SDS011;36133;42.522;27.456;2022-08-01T12:48:16;3.92;;;1.13;;
50249;SDS011;36133;42.522;27.456;2022-08-01T12:50:49;2.70;;;1.13;;
50249;SDS011;36133;42.522;27.456;2022-08-01T12:53:17;2.95;;;1.30;;
50249;SDS011;36133;42.522;27.456;2022-08-01T12:55:46;2.65;;;1.30;;
50249;SDS011;36133;42.522;27.456;2022-08-01T12:58:15;2.70;;;1.42;;
50249;SDS011;36133;42.522;27.456;2022-08-01T13:00:43;2.83;;;1.23;;
50249;SDS011;36133;42.522;27.456;2022-08-01T13:05:44;5.93;;;1.30;;
50249;SDS011;36133;42.522;27.456;2022-08-01T13:08:11;3.03;;;1.40;;
50249;SDS011;36133;42.522;27.456;2022-08-01T13:10:37;2.25;;;1.30;;
50249;SDS011;36133;42.522;27.456;2022-08-01T13:13:03;3.88;;;1.00;;
50249;SDS011;36133;42.522;27.456;2022-08-01T13:15:32;3.58;;;1.00;;
50249;SDS011;36133;42.522;27.456;2022-08-01T13:18:25;1.65;;;0.95;;
50249;SDS011;36133;42.522;27.456;2022-08-01T13:24:03;2.35;;;1.70;;
50249;SDS011;36133;42.522;27.456;2022-08-01T13:27:19;3.25;;;1.50;;
50249;SDS011;36133;42.522;27.456;2022-08-01T13:34:41;4.30;;;1.42;;
50249;SDS011;36133;42.522;27.456;2022-08-01T13:37:10;1.90;;;1.33;;
50249;SDS011;36133;42.522;27.456;2022-08-01T13:39:36;2.67;;;1.50;;
50249;SDS011;36133;42.522;27.456;2022-08-01T13:42:15;2.97;;;1.58;;
50249;SDS011;36133;42.522;27.456;2022-08-01T13:44:43;3.17;;;1.30;;
50249;SDS011;36133;42.522;27.456;2022-08-01T13:47:13;3.28;;;1.40;;
50249;SDS011;36133;42.522;27.456;2022-08-01T13:49:40;4.75;;;1.60;;
50249;SDS011;36133;42.522;27.456;2022-08-01T13:52:19;3.58;;;1.85;;
50249;SDS011;36133;42.522;27.456;2022-08-01T13:54:47;3.10;;;1.63;;
50249;SDS011;36133;42.522;27.456;2022-08-01T13:57:16;2.17;;;1.00;;
50249;SDS011;36133;42.522;27.456;2022-08-01T13:59:42;4.75;;;1.30;;
50249;SDS011;36133;42.522;27.456;2022-08-01T14:02:07;4.30;;;1.55;;
50249;SDS011;36133;42.522;27.456;2022-08-01T14:04:33;6.68;;;1.45;;
50249;SDS011;36133;42.522;27.456;2022-08-01T14:07:04;3.08;;;0.82;;
50249;SDS011;36133;42.522;27.456;2022-08-01T14:09:29;6.03;;;1.60;;
50249;SDS011;36133;42.522;27.456;2022-08-01T14:11:58;2.90;;;1.23;;
50249;SDS011;36133;42.522;27.456;2022-08-01T14:14:29;2.67;;;1.10;;
50249;SDS011;36133;42.522;27.456;2022-08-01T14:16:55;2.97;;;1.30;;
50249;SDS011;36133;42.522;27.456;2022-08-01T14:19:21;3.67;;;1.83;;
50249;SDS011;36133;42.522;27.456;2022-08-01T14:21:47;5.78;;;1.75;;
50249;SDS011;36133;42.522;27.456;2022-08-01T14:24:34;4.35;;;1.30;;
50249;SDS011;36133;42.522;27.456;2022-08-01T14:27:02;4.35;;;1.25;;
50249;SDS011;36133;42.522;27.456;2022-08-01T14:29:28;4.35;;;1.30;;
50249;SDS011;36133;42.522;27.456;2022-08-01T14:31:56;5.55;;;1.35;;
50249;SDS011;36133;42.522;27.456;2022-08-01T14:34:22;1.92;;;1.10;;
50249;SDS011;36133;42.522;27.456;2022-08-01T14:36:48;2.88;;;1.27;;
50249;SDS011;36133;42.522;27.456;2022-08-01T14:39:16;6.00;;;1.60;;
50249;SDS011;36133;42.522;27.456;2022-08-01T14:41:42;2.30;;;1.20;;
50249;SDS011;36133;42.522;27.456;2022-08-01T14:44:07;2.10;;;1.73;;
50249;SDS011;36133;42.522;27.456;2022-08-01T14:46:33;1.65;;;1.38;;
50249;SDS011;36133;42.522;27.456;2022-08-01T14:48:59;2.63;;;1.20;;
50249;SDS011;36133;42.522;27.456;2022-08-01T14:51:25;2.38;;;1.35;;
50249;SDS011;36133;42.522;27.456;2022-08-01T14:53:50;11.73;;;1.88;;
50249;SDS011;36133;42.522;27.456;2022-08-01T14:56:17;3.42;;;1.30;;
50249;SDS011;36133;42.522;27.456;2022-08-01T14:58:43;5.03;;;1.50;;
50249;SDS011;36133;42.522;27.456;2022-08-01T15:01:12;6.13;;;1.73;;
50249;SDS011;36133;42.522;27.456;2022-08-01T15:03:49;4.68;;;1.52;;
50249;SDS011;36133;42.522;27.456;2022-08-01T15:06:16;8.05;;;1.50;;
50249;SDS011;36133;42.522;27.456;2022-08-01T15:08:42;3.17;;;1.40;;
50249;SDS011;36133;42.522;27.456;2022-08-01T15:11:08;3.35;;;1.38;;
50249;SDS011;36133;42.522;27.456;2022-08-01T15:13:37;5.28;;;1.60;;
50249;SDS011;36133;42.522;27.456;2022-08-01T15:16:05;2.60;;;1.40;;
50249;SDS011;36133;42.522;27.456;2022-08-01T15:18:31;3.65;;;1.58;;
50249;SDS011;36133;42.522;27.456;2022-08-01T15:20:56;2.25;;;1.50;;
50249;SDS011;36133;42.522;27.456;2022-08-01T15:23:25;2.80;;;1.65;;
50249;SDS011;36133;42.522;27.456;2022-08-01T15:25:51;5.95;;;1.83;;
50249;SDS011;36133;42.522;27.456;2022-08-01T15:28:25;2.10;;;1.42;;
50249;SDS011;36133;42.522;27.456;2022-08-01T15:30:50;3.17;;;1.38;;
50249;SDS011;36133;42.522;27.456;2022-08-01T15:33:19;5.57;;;1.67;;
50249;SDS011;36133;42.522;27.456;2022-08-01T15:35:46;4.25;;;1.70;;
50249;SDS011;36133;42.522;27.456;2022-08-01T15:38:17;8.15;;;2.10;;
50249;SDS011;36133;42.522;27.456;2022-08-01T15:40:46;3.10;;;1.70;;
50249;SDS011;36133;42.522;27.456;2022-08-01T15:43:14;2.70;;;1.73;;